sensor_id;sensor_type;location;lat;lon;timestamp;temperature;humidity
57030;DHT22;42920;45.306;20.448;2023-09-18T00:01:56;487.20;2380.80
57030;DHT22;42920;45.306;20.448;2023-09-18T00:04:22;487.20;2380.80
57030;DHT22;42920;45.306;20.448;2023-09-18T00:06:48;487.20;2380.80
57030;DHT22;42920;45.306;20.448;2023-09-18T00:09:14;487.20;2380.80
57030;DHT22;42920;45.306;20.448;2023-09-18T00:11:40;487.20;2380.80
57030;DHT22;42920;45.306;20.448;2023-09-18T00:14:07;487.20;2380.80
57030;DHT22;42920;45.306;20.448;2023-09-18T00:16:33;487.20;2380.80
57030;DHT22;42920;45.306;20.448;2023-09-18T00:18:58;487.20;2380.80
57030;DHT22;42920;45.306;20.448;2023-09-18T00:21:25;487.30;2380.80
57030;DHT22;42920;45.306;20.448;2023-09-18T00:23:51;487.10;2380.80
57030;DHT22;42920;45.306;20.448;2023-09-18T00:26:17;487.00;2380.80
57030;DHT22;42920;45.306;20.448;2023-09-18T00:28:43;487.10;2380.80
57030;DHT22;42920;45.306;20.448;2023-09-18T00:31:09;487.10;2380.80
57030;DHT22;42920;45.306;20.448;2023-09-18T00:33:35;487.00;2380.80
57030;DHT22;42920;45.306;20.448;2023-09-18T00:36:01;487.00;2380.80
57030;DHT22;42920;45.306;20.448;2023-09-18T00:38:26;486.90;2380.80
57030;DHT22;42920;45.306;20.448;2023-09-18T00:40:52;486.90;2380.80
57030;DHT22;42920;45.306;20.448;2023-09-18T00:43:18;487.00;2380.80
57030;DHT22;42920;45.306;20.448;2023-09-18T00:45:48;486.80;2380.80
57030;DHT22;42920;45.306;20.448;2023-09-18T00:48:15;486.80;2380.80
57030;DHT22;42920;45.306;20.448;2023-09-18T00:50:41;486.80;2380.80
57030;DHT22;42920;45.306;20.448;2023-09-18T00:53:09;486.80;2380.80
57030;DHT22;42920;45.306;20.448;2023-09-18T00:55:37;486.80;2380.80
57030;DHT22;42920;45.306;20.448;2023-09-18T00:58:04;486.80;2380.80
57030;DHT22;42920;45.306;20.448;2023-09-18T01:00:30;486.80;2380.80
57030;DHT22;42920;45.306;20.448;2023-09-18T01:02:56;486.80;2380.80
57030;DHT22;42920;45.306;20.448;2023-09-18T01:05:22;486.70;2380.80
57030;DHT22;42920;45.306;20.448;2023-09-18T01:07:48;486.70;2380.80
57030;DHT22;42920;45.306;20.448;2023-09-18T01:10:14;486.80;2380.80
57030;DHT22;42920;45.306;20.448;2023-09-18T01:13:03;486.80;2380.80
57030;DHT22;42920;45.306;20.448;2023-09-18T01:15:35;486.80;2380.80
57030;DHT22;42920;45.306;20.448;2023-09-18T01:18:02;486.80;2380.80
57030;DHT22;42920;45.306;20.448;2023-09-18T01:20:28;486.80;2380.80
57030;DHT22;42920;45.306;20.448;2023-09-18T01:22:54;486.80;2380.80
57030;DHT22;42920;45.306;20.448;2023-09-18T01:25:20;486.70;2380.80
57030;DHT22;42920;45.306;20.448;2023-09-18T01:27:46;486.70;2380.80
57030;DHT22;42920;45.306;20.448;2023-09-18T01:30:11;486.70;2380.80
57030;DHT22;42920;45.306;20.448;2023-09-18T01:32:39;486.60;2380.80
57030;DHT22;42920;45.306;20.448;2023-09-18T01:35:06;486.60;2380.80
57030;DHT22;42920;45.306;20.448;2023-09-18T01:37:34;486.70;2380.80
57030;DHT22;42920;45.306;20.448;2023-09-18T01:40:02;486.60;2380.80
57030;DHT22;42920;45.306;20.448;2023-09-18T01:42:32;486.50;2380.80
57030;DHT22;42920;45.306;20.448;2023-09-18T01:44:59;486.60;2380.80
57030;DHT22;42920;45.306;20.448;2023-09-18T01:47:25;486.50;2380.80
57030;DHT22;42920;45.306;20.448;2023-09-18T01:49:52;486.50;2380.80
57030;DHT22;42920;45.306;20.448;2023-09-18T01:52:18;486.60;2380.80
57030;DHT22;42920;45.306;20.448;2023-09-18T01:54:44;486.70;2380.80
57030;DHT22;42920;45.306;20.448;2023-09-18T01:57:10;486.70;2380.80
57030;DHT22;42920;45.306;20.448;2023-09-18T01:59:37;486.70;2380.80
57030;DHT22;42920;45.306;20.448;2023-09-18T02:02:04;486.50;2380.80
57030;DHT22;42920;45.306;20.448;2023-09-18T02:04:32;486.50;2380.80
57030;DHT22;42920;45.306;20.448;2023-09-18T02:06:58;486.50;2380.80
57030;DHT22;42920;45.306;20.448;2023-09-18T02:09:23;486.50;2380.80
57030;DHT22;42920;45.306;20.448;2023-09-18T02:11:49;486.40;2380.80
57030;DHT22;42920;45.306;20.448;2023-09-18T02:14:15;486.40;2380.80
57030;DHT22;42920;45.306;20.448;2023-09-18T02:16:42;461.70;2380.80
57030;DHT22;42920;45.306;20.448;2023-09-18T02:19:12;461.70;2380.80
57030;DHT22;42920;45.306;20.448;2023-09-18T02:21:40;461.70;2380.80
57030;DHT22;42920;45.306;20.448;2023-09-18T02:24:06;461.70;2380.80
57030;DHT22;42920;45.306;20.448;2023-09-18T02:26:32;461.70;2380.80
57030;DHT22;42920;45.306;20.448;2023-09-18T02:28:59;461.70;2380.80
57030;DHT22;42920;45.306;20.448;2023-09-18T02:31:25;461.60;2380.80
57030;DHT22;42920;45.306;20.448;2023-09-18T02:33:51;461.60;2380.80
57030;DHT22;42920;45.306;20.448;2023-09-18T02:36:17;461.60;2380.80
57030;DHT22;42920;45.306;20.448;2023-09-18T02:38:43;461.70;2380.80
57030;DHT22;42920;45.306;20.448;2023-09-18T02:41:09;461.70;2380.80
57030;DHT22;42920;45.306;20.448;2023-09-18T02:43:35;461.70;2380.80
57030;DHT22;42920;45.306;20.448;2023-09-18T02:46:03;461.70;2380.80
57030;DHT22;42920;45.306;20.448;2023-09-18T02:48:30;486.40;2380.80
57030;DHT22;42920;45.306;20.448;2023-09-18T02:50:55;486.40;2380.80
57030;DHT22;42920;45.306;20.448;2023-09-18T02:53:23;486.50;2380.80
57030;DHT22;42920;45.306;20.448;2023-09-18T02:55:57;486.50;2380.80
57030;DHT22;42920;45.306;20.448;2023-09-18T02:58:24;486.70;2380.80
57030;DHT22;42920;45.306;20.448;2023-09-18T03:00:52;486.50;2380.80
57030;DHT22;42920;45.306;20.448;2023-09-18T03:03:25;486.50;2380.80
57030;DHT22;42920;45.306;20.448;2023-09-18T03:05:51;486.60;2380.80
57030;DHT22;42920;45.306;20.448;2023-09-18T03:08:17;486.70;2380.80
57030;DHT22;42920;45.306;20.448;2023-09-18T03:10:43;486.70;2380.80
57030;DHT22;42920;45.306;20.448;2023-09-18T03:13:10;486.70;2380.80
57030;DHT22;42920;45.306;20.448;2023-09-18T03:15:36;486.70;2380.80
57030;DHT22;42920;45.306;20.448;2023-09-18T03:18:03;486.70;2380.80
57030;DHT22;42920;45.306;20.448;2023-09-18T03:20:30;486.50;2380.80
57030;DHT22;42920;45.306;20.448;2023-09-18T03:22:58;486.40;2380.80
57030;DHT22;42920;45.306;20.448;2023-09-18T03:25:24;486.40;2380.80
57030;DHT22;42920;45.306;20.448;2023-09-18T03:27:51;486.40;2380.80
57030;DHT22;42920;45.306;20.448;2023-09-18T03:30:18;461.70;2380.80
57030;DHT22;42920;45.306;20.448;2023-09-18T03:32:45;461.70;2380.80
57030;DHT22;42920;45.306;20.448;2023-09-18T03:35:14;461.60;2380.80
57030;DHT22;42920;45.306;20.448;2023-09-18T03:37:45;461.50;2380.80
57030;DHT22;42920;45.306;20.448;2023-09-18T03:40:11;461.70;2380.80
57030;DHT22;42920;45.306;20.448;2023-09-18T03:42:36;461.70;2380.80
57030;DHT22;42920;45.306;20.448;2023-09-18T03:45:02;461.70;2380.80
57030;DHT22;42920;45.306;20.448;2023-09-18T03:47:28;461.60;2380.80
57030;DHT22;42920;45.306;20.448;2023-09-18T03:49:54;461.50;2380.80
57030;DHT22;42920;45.306;20.448;2023-09-18T03:52:20;461.40;2380.80
57030;DHT22;42920;45.306;20.448;2023-09-18T03:54:45;461.50;2380.80
57030;DHT22;42920;45.306;20.448;2023-09-18T03:57:11;461.50;2380.80
57030;DHT22;42920;45.306;20.448;2023-09-18T03:59:37;461.50;2380.80
57030;DHT22;42920;45.306;20.448;2023-09-18T04:02:03;461.50;2380.80
57030;DHT22;42920;45.306;20.448;2023-09-18T04:04:29;461.60;2380.80
57030;DHT22;42920;45.306;20.448;2023-09-18T04:06:55;461.60;2380.80
57030;DHT22;42920;45.306;20.448;2023-09-18T04:09:21;461.60;2380.80
57030;DHT22;42920;45.306;20.448;2023-09-18T04:11:46;461.60;2380.80
57030;DHT22;42920;45.306;20.448;2023-09-18T04:14:12;461.70;2380.80
57030;DHT22;42920;45.306;20.448;2023-09-18T04:16:38;461.70;2380.80
57030;DHT22;42920;45.306;20.448;2023-09-18T04:19:07;461.70;2380.80
57030;DHT22;42920;45.306;20.448;2023-09-18T04:21:33;461.70;2380.80
57030;DHT22;42920;45.306;20.448;2023-09-18T04:23:59;461.60;2380.80
57030;DHT22;42920;45.306;20.448;2023-09-18T04:26:25;461.50;2380.80
57030;DHT22;42920;45.306;20.448;2023-09-18T04:28:56;461.60;2380.80
57030;DHT22;42920;45.306;20.448;2023-09-18T04:31:22;461.50;2380.80
57030;DHT22;42920;45.306;20.448;2023-09-18T04:33:47;461.40;2380.80
57030;DHT22;42920;45.306;20.448;2023-09-18T04:36:15;461.40;2380.80
57030;DHT22;42920;45.306;20.448;2023-09-18T04:38:40;461.30;2380.80
57030;DHT22;42920;45.306;20.448;2023-09-18T04:41:06;461.20;2380.80
57030;DHT22;42920;45.306;20.448;2023-09-18T04:43:40;461.20;2380.80
57030;DHT22;42920;45.306;20.448;2023-09-18T04:46:05;461.20;2380.80
57030;DHT22;42920;45.306;20.448;2023-09-18T04:48:32;461.20;2380.80
57030;DHT22;42920;45.306;20.448;2023-09-18T04:50:58;461.20;2380.80
57030;DHT22;42920;45.306;20.448;2023-09-18T04:53:24;461.10;2380.80
57030;DHT22;42920;45.306;20.448;2023-09-18T04:55:50;461.30;2380.80
57030;DHT22;42920;45.306;20.448;2023-09-18T04:58:19;461.50;2380.80
57030;DHT22;42920;45.306;20.448;2023-09-18T05:00:45;461.60;2380.80
57030;DHT22;42920;45.306;20.448;2023-09-18T05:03:12;461.60;2380.80
57030;DHT22;42920;45.306;20.448;2023-09-18T05:05:38;461.70;2380.80
57030;DHT22;42920;45.306;20.448;2023-09-18T05:08:07;461.70;2380.80
57030;DHT22;42920;45.306;20.448;2023-09-18T05:10:38;461.70;2380.80
57030;DHT22;42920;45.306;20.448;2023-09-18T05:13:04;486.50;2380.80
57030;DHT22;42920;45.306;20.448;2023-09-18T05:15:30;486.50;2380.80
57030;DHT22;42920;45.306;20.448;2023-09-18T05:17:57;486.50;2380.80
57030;DHT22;42920;45.306;20.448;2023-09-18T05:20:28;486.60;2380.80
57030;DHT22;42920;45.306;20.448;2023-09-18T05:22:55;486.70;2380.80
57030;DHT22;42920;45.306;20.448;2023-09-18T05:25:22;486.70;2380.80
57030;DHT22;42920;45.306;20.448;2023-09-18T05:27:49;486.80;2380.80
57030;DHT22;42920;45.306;20.448;2023-09-18T05:30:28;486.90;2380.80
57030;DHT22;42920;45.306;20.448;2023-09-18T05:32:55;487.00;2380.80
57030;DHT22;42920;45.306;20.448;2023-09-18T05:35:21;487.10;2380.80
57030;DHT22;42920;45.306;20.448;2023-09-18T05:37:49;487.20;2380.80
57030;DHT22;42920;45.306;20.448;2023-09-18T05:40:16;512.00;2380.80
57030;DHT22;42920;45.306;20.448;2023-09-18T05:42:43;512.10;2380.80
57030;DHT22;42920;45.306;20.448;2023-09-18T05:45:10;512.30;2380.80
57030;DHT22;42920;45.306;20.448;2023-09-18T05:47:36;512.40;2380.80
57030;DHT22;42920;45.306;20.448;2023-09-18T05:50:07;512.50;2380.80
57030;DHT22;42920;45.306;20.448;2023-09-18T05:52:34;512.70;2380.80
57030;DHT22;42920;45.306;20.448;2023-09-18T05:55:00;512.80;2380.80
57030;DHT22;42920;45.306;20.448;2023-09-18T05:57:26;512.90;2380.80
57030;DHT22;42920;45.306;20.448;2023-09-18T05:59:57;537.60;2406.40
57030;DHT22;42920;45.306;20.448;2023-09-18T06:02:23;537.70;2406.40
57030;DHT22;42920;45.306;20.448;2023-09-18T06:04:54;537.80;2406.40
57030;DHT22;42920;45.306;20.448;2023-09-18T06:07:21;538.00;2406.40
57030;DHT22;42920;45.306;20.448;2023-09-18T06:09:48;538.00;2406.40
57030;DHT22;42920;45.306;20.448;2023-09-18T06:12:14;538.10;2406.40
57030;DHT22;42920;45.306;20.448;2023-09-18T06:14:39;538.20;2406.40
57030;DHT22;42920;45.306;20.448;2023-09-18T06:17:05;538.30;2406.40
57030;DHT22;42920;45.306;20.448;2023-09-18T06:19:31;538.30;2406.40
57030;DHT22;42920;45.306;20.448;2023-09-18T06:21:58;538.50;2406.40
57030;DHT22;42920;45.306;20.448;2023-09-18T06:24:24;563.30;2432.00
57030;DHT22;42920;45.306;20.448;2023-09-18T06:26:50;563.40;2432.00
57030;DHT22;42920;45.306;20.448;2023-09-18T06:29:16;563.50;2432.00
57030;DHT22;42920;45.306;20.448;2023-09-18T06:31:42;563.60;2432.00
57030;DHT22;42920;45.306;20.448;2023-09-18T06:34:08;563.70;2432.00
57030;DHT22;42920;45.306;20.448;2023-09-18T06:36:33;563.90;2432.00
57030;DHT22;42920;45.306;20.448;2023-09-18T06:38:59;564.00;2432.00
57030;DHT22;42920;45.306;20.448;2023-09-18T06:41:25;588.80;2432.00
57030;DHT22;42920;45.306;20.448;2023-09-18T06:43:50;588.80;2432.00
57030;DHT22;42920;45.306;20.448;2023-09-18T06:46:16;589.00;2432.00
57030;DHT22;42920;45.306;20.448;2023-09-18T06:48:42;589.10;2432.00
57030;DHT22;42920;45.306;20.448;2023-09-18T06:51:11;589.20;2432.00
57030;DHT22;42920;45.306;20.448;2023-09-18T06:53:37;589.40;2432.00
57030;DHT22;42920;45.306;20.448;2023-09-18T06:56:02;589.50;2432.00
57030;DHT22;42920;45.306;20.448;2023-09-18T06:58:28;589.60;2432.00
57030;DHT22;42920;45.306;20.448;2023-09-18T07:00:54;589.70;2432.00
57030;DHT22;42920;45.306;20.448;2023-09-18T07:03:20;614.40;2432.00
57030;DHT22;42920;45.306;20.448;2023-09-18T07:05:45;614.50;2432.00
57030;DHT22;42920;45.306;20.448;2023-09-18T07:08:11;614.60;2432.00
57030;DHT22;42920;45.306;20.448;2023-09-18T07:10:38;614.80;2432.00
57030;DHT22;42920;45.306;20.448;2023-09-18T07:13:05;614.80;2432.00
57030;DHT22;42920;45.306;20.448;2023-09-18T07:15:31;614.80;2432.00
57030;DHT22;42920;45.306;20.448;2023-09-18T07:22:50;615.10;2432.00
57030;DHT22;42920;45.306;20.448;2023-09-18T07:25:16;615.30;2432.00
57030;DHT22;42920;45.306;20.448;2023-09-18T07:27:42;640.20;2432.00
57030;DHT22;42920;45.306;20.448;2023-09-18T07:30:13;640.10;2432.00
57030;DHT22;42920;45.306;20.448;2023-09-18T07:32:43;640.20;2432.00
57030;DHT22;42920;45.306;20.448;2023-09-18T07:35:09;640.40;2432.00
57030;DHT22;42920;45.306;20.448;2023-09-18T07:37:36;640.70;2432.00
57030;DHT22;42920;45.306;20.448;2023-09-18T07:40:06;640.80;2432.00
57030;DHT22;42920;45.306;20.448;2023-09-18T07:42:32;640.70;2432.00
57030;DHT22;42920;45.306;20.448;2023-09-18T07:44:59;640.70;2432.00
57030;DHT22;42920;45.306;20.448;2023-09-18T07:47:25;640.70;2432.00
57030;DHT22;42920;45.306;20.448;2023-09-18T07:49:51;640.90;2432.00
57030;DHT22;42920;45.306;20.448;2023-09-18T07:52:17;665.70;2432.00
57030;DHT22;42920;45.306;20.448;2023-09-18T07:54:43;665.70;2432.00
57030;DHT22;42920;45.306;20.448;2023-09-18T07:57:09;665.70;2432.00
57030;DHT22;42920;45.306;20.448;2023-09-18T07:59:36;665.90;2432.00
57030;DHT22;42920;45.306;20.448;2023-09-18T08:04:31;666.20;2406.40
57030;DHT22;42920;45.306;20.448;2023-09-18T08:06:57;666.20;2432.00
57030;DHT22;42920;45.306;20.448;2023-09-18T08:09:23;666.30;2406.40
57030;DHT22;42920;45.306;20.448;2023-09-18T08:11:49;666.50;2380.80
57030;DHT22;42920;45.306;20.448;2023-09-18T08:14:16;691.30;2355.20
57030;DHT22;42920;45.306;20.448;2023-09-18T08:16:42;691.40;2329.60
57030;DHT22;42920;45.306;20.448;2023-09-18T08:19:08;691.40;2304.00
57030;DHT22;42920;45.306;20.448;2023-09-18T08:21:34;691.30;2304.00
57030;DHT22;42920;45.306;20.448;2023-09-18T08:24:00;691.60;2252.80
57030;DHT22;42920;45.306;20.448;2023-09-18T08:26:26;691.90;2227.20
57030;DHT22;42920;45.306;20.448;2023-09-18T08:28:53;692.00;2227.20
57030;DHT22;42920;45.306;20.448;2023-09-18T08:31:19;716.80;2227.20
57030;DHT22;42920;45.306;20.448;2023-09-18T08:33:45;692.10;2176.00
57030;DHT22;42920;45.306;20.448;2023-09-18T08:36:11;692.10;2201.60
57030;DHT22;42920;45.306;20.448;2023-09-18T08:38:38;717.10;2201.60
57030;DHT22;42920;45.306;20.448;2023-09-18T08:41:03;716.90;2150.40
57030;DHT22;42920;45.306;20.448;2023-09-18T08:43:32;716.90;2176.00
57030;DHT22;42920;45.306;20.448;2023-09-18T08:45:57;717.10;2150.40
57030;DHT22;42920;45.306;20.448;2023-09-18T08:48:28;717.10;2124.80
57030;DHT22;42920;45.306;20.448;2023-09-18T08:51:04;717.10;2099.20
57030;DHT22;42920;45.306;20.448;2023-09-18T08:53:35;716.90;2099.20
57030;DHT22;42920;45.306;20.448;2023-09-18T08:56:02;717.20;2099.20
57030;DHT22;42920;45.306;20.448;2023-09-18T08:58:33;717.20;2073.60
57030;DHT22;42920;45.306;20.448;2023-09-18T09:01:02;717.70;2048.00
57030;DHT22;42920;45.306;20.448;2023-09-18T09:03:30;717.50;2048.00
57030;DHT22;42920;45.306;20.448;2023-09-18T09:05:56;742.50;2073.60
57030;DHT22;42920;45.306;20.448;2023-09-18T09:08:22;742.40;2022.40
57030;DHT22;42920;45.306;20.448;2023-09-18T09:10:48;742.50;1996.80
57030;DHT22;42920;45.306;20.448;2023-09-18T09:13:15;742.70;2022.40
57030;DHT22;42920;45.306;20.448;2023-09-18T09:15:45;742.50;1996.80
57030;DHT22;42920;45.306;20.448;2023-09-18T09:18:12;742.50;1996.80
57030;DHT22;42920;45.306;20.448;2023-09-18T09:20:40;742.80;1971.20
57030;DHT22;42920;45.306;20.448;2023-09-18T09:23:09;742.80;1996.80
57030;DHT22;42920;45.306;20.448;2023-09-18T09:25:35;742.70;1971.20
57030;DHT22;42920;45.306;20.448;2023-09-18T09:28:06;742.70;1945.60
57030;DHT22;42920;45.306;20.448;2023-09-18T09:30:35;743.00;1945.60
57030;DHT22;42920;45.306;20.448;2023-09-18T09:33:03;768.00;1945.60
57030;DHT22;42920;45.306;20.448;2023-09-18T09:35:36;768.00;1920.00
57030;DHT22;42920;45.306;20.448;2023-09-18T09:38:09;743.10;1920.00
57030;DHT22;42920;45.306;20.448;2023-09-18T09:40:35;743.30;1894.40
57030;DHT22;42920;45.306;20.448;2023-09-18T09:43:03;743.30;1894.40
57030;DHT22;42920;45.306;20.448;2023-09-18T09:45:32;743.10;1894.40
57030;DHT22;42920;45.306;20.448;2023-09-18T09:48:05;743.00;1894.40
57030;DHT22;42920;45.306;20.448;2023-09-18T09:50:32;742.90;1894.40
57030;DHT22;42920;45.306;20.448;2023-09-18T09:52:59;743.00;1868.80
57030;DHT22;42920;45.306;20.448;2023-09-18T09:55:32;743.10;1894.40
57030;DHT22;42920;45.306;20.448;2023-09-18T09:58:04;768.00;1868.80
57030;DHT22;42920;45.306;20.448;2023-09-18T10:00:43;768.20;1843.20
57030;DHT22;42920;45.306;20.448;2023-09-18T10:03:16;768.10;1843.20
57030;DHT22;42920;45.306;20.448;2023-09-18T10:05:44;768.30;1817.60
57030;DHT22;42920;45.306;20.448;2023-09-18T10:08:28;768.30;1817.60
57030;DHT22;42920;45.306;20.448;2023-09-18T10:11:01;768.50;1792.00
57030;DHT22;42920;45.306;20.448;2023-09-18T10:13:42;768.30;1817.60
57030;DHT22;42920;45.306;20.448;2023-09-18T10:16:13;768.30;1817.60
57030;DHT22;42920;45.306;20.448;2023-09-18T10:21:38;768.90;1766.40
57030;DHT22;42920;45.306;20.448;2023-09-18T10:26:51;768.80;1740.80
57030;DHT22;42920;45.306;20.448;2023-09-18T10:29:19;768.80;1740.80
57030;DHT22;42920;45.306;20.448;2023-09-18T10:31:47;768.90;1740.80
57030;DHT22;42920;45.306;20.448;2023-09-18T10:34:13;768.60;1766.40
57030;DHT22;42920;45.306;20.448;2023-09-18T10:36:43;768.40;1766.40
57030;DHT22;42920;45.306;20.448;2023-09-18T10:39:10;768.80;1766.40
57030;DHT22;42920;45.306;20.448;2023-09-18T10:41:38;793.70;1740.80
57030;DHT22;42920;45.306;20.448;2023-09-18T10:44:05;794.00;1740.80
57030;DHT22;42920;45.306;20.448;2023-09-18T10:46:31;794.20;1740.80
57030;DHT22;42920;45.306;20.448;2023-09-18T10:49:00;794.10;1740.80
57030;DHT22;42920;45.306;20.448;2023-09-18T10:51:27;794.10;1715.20
57030;DHT22;42920;45.306;20.448;2023-09-18T10:53:55;794.20;1715.20
57030;DHT22;42920;45.306;20.448;2023-09-18T10:56:21;794.20;1715.20
57030;DHT22;42920;45.306;20.448;2023-09-18T11:01:23;819.20;1689.60
57030;DHT22;42920;45.306;20.448;2023-09-18T11:03:50;819.30;1689.60
57030;DHT22;42920;45.306;20.448;2023-09-18T11:06:16;794.30;1689.60
57030;DHT22;42920;45.306;20.448;2023-09-18T11:08:46;819.20;1689.60
57030;DHT22;42920;45.306;20.448;2023-09-18T11:19:16;819.70;1638.40
57030;DHT22;42920;45.306;20.448;2023-09-18T11:21:43;819.80;1587.20
57030;DHT22;42920;45.306;20.448;2023-09-18T11:24:16;819.80;1612.80
57030;DHT22;42920;45.306;20.448;2023-09-18T11:26:44;819.60;1612.80
57030;DHT22;42920;45.306;20.448;2023-09-18T11:29:13;819.50;1638.40
57030;DHT22;42920;45.306;20.448;2023-09-18T11:34:27;794.50;1638.40
57030;DHT22;42920;45.306;20.448;2023-09-18T11:37:20;819.60;1612.80
57030;DHT22;42920;45.306;20.448;2023-09-18T11:39:46;819.30;1638.40
57030;DHT22;42920;45.306;20.448;2023-09-18T11:42:21;819.60;1612.80
57030;DHT22;42920;45.306;20.448;2023-09-18T11:44:52;819.50;1612.80
57030;DHT22;42920;45.306;20.448;2023-09-18T11:47:19;819.30;1638.40
57030;DHT22;42920;45.306;20.448;2023-09-18T11:49:50;819.50;1612.80
57030;DHT22;42920;45.306;20.448;2023-09-18T11:52:21;819.60;1587.20
57030;DHT22;42920;45.306;20.448;2023-09-18T11:54:47;819.30;1638.40
57030;DHT22;42920;45.306;20.448;2023-09-18T11:57:13;819.50;1612.80
57030;DHT22;42920;45.306;20.448;2023-09-18T11:59:42;819.70;1612.80
57030;DHT22;42920;45.306;20.448;2023-09-18T12:02:32;819.50;1612.80
57030;DHT22;42920;45.306;20.448;2023-09-18T12:05:19;819.60;1612.80
57030;DHT22;42920;45.306;20.448;2023-09-18T12:07:46;819.30;1612.80
57030;DHT22;42920;45.306;20.448;2023-09-18T12:10:14;819.30;1612.80
57030;DHT22;42920;45.306;20.448;2023-09-18T12:12:42;819.70;1587.20
57030;DHT22;42920;45.306;20.448;2023-09-18T12:15:11;819.30;1612.80
57030;DHT22;42920;45.306;20.448;2023-09-18T12:17:37;819.20;1612.80
57030;DHT22;42920;45.306;20.448;2023-09-18T12:20:03;819.20;1612.80
57030;DHT22;42920;45.306;20.448;2023-09-18T12:22:31;819.30;1587.20
57030;DHT22;42920;45.306;20.448;2023-09-18T12:25:28;794.30;1612.80
57030;DHT22;42920;45.306;20.448;2023-09-18T12:27:54;794.20;1638.40
57030;DHT22;42920;45.306;20.448;2023-09-18T12:30:21;794.20;1664.00
57030;DHT22;42920;45.306;20.448;2023-09-18T12:32:51;794.30;1664.00
57030;DHT22;42920;45.306;20.448;2023-09-18T12:35:18;794.50;1612.80
57030;DHT22;42920;45.306;20.448;2023-09-18T12:37:44;794.10;1638.40
57030;DHT22;42920;45.306;20.448;2023-09-18T12:42:52;794.10;1638.40
57030;DHT22;42920;45.306;20.448;2023-09-18T12:45:19;794.30;1638.40
57030;DHT22;42920;45.306;20.448;2023-09-18T12:47:45;794.20;1638.40
57030;DHT22;42920;45.306;20.448;2023-09-18T12:50:14;794.00;1664.00
57030;DHT22;42920;45.306;20.448;2023-09-18T12:52:41;794.00;1664.00
57030;DHT22;42920;45.306;20.448;2023-09-18T12:55:08;794.00;1664.00
57030;DHT22;42920;45.306;20.448;2023-09-18T12:57:33;794.00;1664.00
57030;DHT22;42920;45.306;20.448;2023-09-18T12:59:59;794.10;1664.00
57030;DHT22;42920;45.306;20.448;2023-09-18T13:02:28;768.90;1664.00
57030;DHT22;42920;45.306;20.448;2023-09-18T13:04:55;793.80;1689.60
57030;DHT22;42920;45.306;20.448;2023-09-18T13:07:22;794.20;1664.00
57030;DHT22;42920;45.306;20.448;2023-09-18T13:10:05;794.50;1638.40
57030;DHT22;42920;45.306;20.448;2023-09-18T13:12:51;794.20;1612.80
57030;DHT22;42920;45.306;20.448;2023-09-18T13:15:31;794.20;1612.80
57030;DHT22;42920;45.306;20.448;2023-09-18T13:18:01;794.20;1612.80
57030;DHT22;42920;45.306;20.448;2023-09-18T13:20:34;794.30;1638.40
57030;DHT22;42920;45.306;20.448;2023-09-18T13:23:00;794.20;1638.40
57030;DHT22;42920;45.306;20.448;2023-09-18T13:25:36;794.30;1664.00
57030;DHT22;42920;45.306;20.448;2023-09-18T13:28:05;819.30;1612.80
57030;DHT22;42920;45.306;20.448;2023-09-18T13:30:32;819.20;1612.80
57030;DHT22;42920;45.306;20.448;2023-09-18T13:33:04;819.20;1612.80
57030;DHT22;42920;45.306;20.448;2023-09-18T13:35:32;819.20;1612.80
57030;DHT22;42920;45.306;20.448;2023-09-18T13:37:58;794.50;1638.40
57030;DHT22;42920;45.306;20.448;2023-09-18T13:40:23;794.50;1612.80
57030;DHT22;42920;45.306;20.448;2023-09-18T13:42:49;794.20;1638.40
57030;DHT22;42920;45.306;20.448;2023-09-18T13:45:15;794.20;1638.40
57030;DHT22;42920;45.306;20.448;2023-09-18T13:47:44;794.00;1638.40
57030;DHT22;42920;45.306;20.448;2023-09-18T13:50:10;794.00;1638.40
57030;DHT22;42920;45.306;20.448;2023-09-18T13:52:36;794.00;1664.00
57030;DHT22;42920;45.306;20.448;2023-09-18T13:55:03;793.70;1664.00
57030;DHT22;42920;45.306;20.448;2023-09-18T13:57:39;768.90;1664.00
57030;DHT22;42920;45.306;20.448;2023-09-18T14:00:06;768.90;1664.00
57030;DHT22;42920;45.306;20.448;2023-09-18T14:02:41;793.70;1689.60
57030;DHT22;42920;45.306;20.448;2023-09-18T14:05:08;768.90;1689.60
57030;DHT22;42920;45.306;20.448;2023-09-18T14:07:35;768.90;1689.60
57030;DHT22;42920;45.306;20.448;2023-09-18T14:10:01;768.70;1689.60
57030;DHT22;42920;45.306;20.448;2023-09-18T14:12:30;768.60;1715.20
57030;DHT22;42920;45.306;20.448;2023-09-18T14:14:57;768.50;1689.60
57030;DHT22;42920;45.306;20.448;2023-09-18T14:17:22;768.30;1689.60
57030;DHT22;42920;45.306;20.448;2023-09-18T14:19:48;768.30;1715.20
57030;DHT22;42920;45.306;20.448;2023-09-18T14:22:14;768.10;1715.20
57030;DHT22;42920;45.306;20.448;2023-09-18T14:24:40;768.10;1740.80
57030;DHT22;42920;45.306;20.448;2023-09-18T14:27:06;768.00;1740.80
57030;DHT22;42920;45.306;20.448;2023-09-18T14:29:33;743.20;1740.80
57030;DHT22;42920;45.306;20.448;2023-09-18T14:31:59;743.00;1766.40
57030;DHT22;42920;45.306;20.448;2023-09-18T14:34:26;742.90;1792.00
57030;DHT22;42920;45.306;20.448;2023-09-18T14:36:52;742.90;1766.40
57030;DHT22;42920;45.306;20.448;2023-09-18T14:39:17;742.90;1766.40
57030;DHT22;42920;45.306;20.448;2023-09-18T14:41:43;742.90;1792.00
57030;DHT22;42920;45.306;20.448;2023-09-18T14:44:09;742.80;1792.00
57030;DHT22;42920;45.306;20.448;2023-09-18T14:46:36;742.60;1792.00
57030;DHT22;42920;45.306;20.448;2023-09-18T14:49:03;742.80;1792.00
57030;DHT22;42920;45.306;20.448;2023-09-18T14:51:29;742.80;1792.00
57030;DHT22;42920;45.306;20.448;2023-09-18T14:53:56;742.60;1792.00
57030;DHT22;42920;45.306;20.448;2023-09-18T14:56:23;742.60;1817.60
57030;DHT22;42920;45.306;20.448;2023-09-18T14:58:49;742.60;1817.60
57030;DHT22;42920;45.306;20.448;2023-09-18T15:01:17;742.50;1817.60
57030;DHT22;42920;45.306;20.448;2023-09-18T15:03:43;742.40;1817.60
57030;DHT22;42920;45.306;20.448;2023-09-18T15:06:10;742.50;1817.60
57030;DHT22;42920;45.306;20.448;2023-09-18T15:08:36;742.40;1817.60